Time;durP1;ratioP1;P1;durP2;ratioP2;P2;SDS_P1;SDS_P2;PMS_P1;PMS_P2;Temp;Humidity;BMP_temperature;BMP_pressure;BME280_temperature;BME280_humidity;BME280_pressure;Samples;Min_cycle;Max_cycle;Signal;HPM_P1;HPM_P2
2021/05/29 00:02:16;;;;;;;2.88;0.60;;;;;;;;;;4972896;28;20130;-13
2021/05/29 00:04:42;;;;;;;2.05;0.47;;;;;;;;;;4973894;28;20046;-13
2021/05/29 00:07:08;;;;;;;4.20;0.60;;;;;;;;;;4973789;28;20213;-13
2021/05/29 00:09:33;;;;;;;0.80;0.77;;;;;;;;;;4973634;28;20030;-13
2021/05/29 00:11:59;;;;;;;0.57;0.40;;;;;;;;;;4973730;28;20027;-13
2021/05/29 00:14:24;;;;;;;0.85;0.50;;;;;;;;;;4973668;28;20117;-13
2021/05/29 00:16:49;;;;;;;3.13;0.70;;;;;;;;;;4973233;28;20401;-13
2021/05/29 00:19:15;;;;;;;0.50;0.50;;;;;;;;;;4973608;28;20018;-13
2021/05/29 00:21:41;;;;;;;0.95;0.70;;;;;;;;;;4972382;28;20030;-13
2021/05/29 00:24:06;;;;;;;2.35;0.60;;;;;;;;;;4973764;28;20018;-14
2021/05/29 00:26:32;;;;;;;0.40;0.40;;;;;;;;;;4972333;28;20377;-13
2021/05/29 00:28:57;;;;;;;0.75;0.60;;;;;;;;;;4973589;28;20027;-13
2021/05/29 00:31:23;;;;;;;0.82;0.50;;;;;;;;;;4973435;28;20027;-13
2021/05/29 00:33:48;;;;;;;3.30;0.60;;;;;;;;;;4973484;28;20054;-13
2021/05/29 00:36:13;;;;;;;0.52;0.50;;;;;;;;;;4972570;28;20027;-13
2021/05/29 00:38:39;;;;;;;5.38;0.60;;;;;;;;;;4973257;28;20031;-13
2021/05/29 00:41:08;;;;;;;0.63;0.55;;;;;;;;;;4973760;28;20074;-13
2021/05/29 00:43:34;;;;;;;0.60;0.50;;;;;;;;;;4973598;28;20086;-13
2021/05/29 00:45:59;;;;;;;2.28;0.73;;;;;;;;;;4973654;28;20049;-13
2021/05/29 00:48:25;;;;;;;1.40;0.60;;;;;;;;;;4973664;28;20397;-13
2021/05/29 00:50:58;;;;;;;0.80;0.60;;;;;;;;;;4973568;28;20065;-13
2021/05/29 00:53:24;;;;;;;0.50;0.40;;;;;;;;;;4973250;28;20035;-13
2021/05/29 00:55:50;;;;;;;0.70;0.50;;;;;;;;;;4973246;28;20080;-13
2021/05/29 00:58:15;;;;;;;0.57;0.57;;;;;;;;;;4973566;28;20038;-13
2021/05/29 01:00:41;;;;;;;0.57;0.43;;;;;;;;;;4973119;28;20157;-13
2021/05/29 01:03:06;;;;;;;2.05;0.65;;;;;;;;;;4973539;28;20042;-13
2021/05/29 01:05:32;;;;;;;2.10;0.60;;;;;;;;;;4973373;28;20030;-13
2021/05/29 01:07:58;;;;;;;0.60;0.52;;;;;;;;;;4973438;28;20045;-13
2021/05/29 01:10:24;;;;;;;1.63;0.70;;;;;;;;;;4973502;28;20365;-13
2021/05/29 01:12:50;;;;;;;0.90;0.70;;;;;;;;;;4973051;28;20389;-13
2021/05/29 01:15:17;;;;;;;1.35;0.60;;;;;;;;;;4973421;28;20101;-13
2021/05/29 01:17:43;;;;;;;2.08;0.88;;;;;;;;;;4973022;28;20027;-13
2021/05/29 01:20:09;;;;;;;1.92;0.45;;;;;;;;;;4973050;28;20026;-13
2021/05/29 01:22:41;;;;;;;2.03;0.60;;;;;;;;;;4973059;28;20038;-13
2021/05/29 01:25:13;;;;;;;1.73;0.60;;;;;;;;;;4973281;28;20110;-13
2021/05/29 01:27:39;;;;;;;1.42;0.82;;;;;;;;;;4973400;28;20429;-13
2021/05/29 01:30:05;;;;;;;0.68;0.68;;;;;;;;;;4975210;28;20073;-13
2021/05/29 01:32:33;;;;;;;1.55;0.77;;;;;;;;;;4976298;28;20089;-13
2021/05/29 01:35:00;;;;;;;1.20;1.10;;;;;;;;;;4976341;28;20062;-13
2021/05/29 01:37:25;;;;;;;1.42;0.50;;;;;;;;;;4976592;28;20034;-13
2021/05/29 01:39:51;;;;;;;0.70;0.65;;;;;;;;;;4976467;28;20082;-13
2021/05/29 01:42:17;;;;;;;2.97;1.65;;;;;;;;;;4976437;28;20097;-13
2021/05/29 01:44:43;;;;;;;0.85;0.60;;;;;;;;;;4976488;28;20454;-13
2021/05/29 01:47:08;;;;;;;0.80;0.65;;;;;;;;;;4976460;28;20038;-13
2021/05/29 01:49:33;;;;;;;4.15;0.63;;;;;;;;;;4975991;28;20435;-13
2021/05/29 01:51:59;;;;;;;1.08;0.40;;;;;;;;;;4974822;28;20131;-13
2021/05/29 01:54:24;;;;;;;0.40;0.40;;;;;;;;;;4976035;28;20042;-14
2021/05/29 01:56:50;;;;;;;0.50;0.50;;;;;;;;;;4976168;28;20113;-13
2021/05/29 01:59:15;;;;;;;0.95;0.60;;;;;;;;;;4976263;28;20489;-13
2021/05/29 02:01:41;;;;;;;0.95;0.60;;;;;;;;;;4975822;28;20388;-13
2021/05/29 02:04:06;;;;;;;0.82;0.68;;;;;;;;;;4976044;28;20015;-13
2021/05/29 02:06:31;;;;;;;2.33;0.90;;;;;;;;;;4975707;28;20046;-13
2021/05/29 02:08:57;;;;;;;2.95;0.60;;;;;;;;;;4975856;28;20105;-13
2021/05/29 02:11:22;;;;;;;0.40;0.40;;;;;;;;;;4975750;28;20034;-13
2021/05/29 02:13:47;;;;;;;0.77;0.60;;;;;;;;;;4975531;28;20082;-13
2021/05/29 02:16:13;;;;;;;2.55;0.80;;;;;;;;;;4975690;28;20037;-13
2021/05/29 02:18:39;;;;;;;2.60;0.88;;;;;;;;;;4975424;28;20485;-13
2021/05/29 02:21:07;;;;;;;1.63;0.77;;;;;;;;;;4975612;28;20027;-13
2021/05/29 02:23:37;;;;;;;0.80;0.65;;;;;;;;;;4975770;28;20019;-13
2021/05/29 02:26:03;;;;;;;1.38;0.63;;;;;;;;;;4975685;28;20114;-13
2021/05/29 02:28:30;;;;;;;5.97;0.73;;;;;;;;;;4975321;28;20523;-14
2021/05/29 02:30:56;;;;;;;0.65;0.60;;;;;;;;;;4975742;28;20035;-13
2021/05/29 02:33:22;;;;;;;1.90;0.75;;;;;;;;;;4975129;28;20031;-13
2021/05/29 02:35:48;;;;;;;0.65;0.52;;;;;;;;;;4975526;28;20074;-13
2021/05/29 02:38:13;;;;;;;2.03;1.10;;;;;;;;;;4973888;28;20110;-13
2021/05/29 02:40:39;;;;;;;2.60;0.82;;;;;;;;;;4975058;28;20027;-13
2021/05/29 02:43:04;;;;;;;0.98;0.68;;;;;;;;;;4975493;28;20019;-13
2021/05/29 02:45:30;;;;;;;4.70;0.80;;;;;;;;;;4974929;28;20045;-13
2021/05/29 02:47:55;;;;;;;1.30;0.80;;;;;;;;;;4975345;28;20071;-13
2021/05/29 02:50:21;;;;;;;0.52;0.40;;;;;;;;;;4975264;28;20038;-13
2021/05/29 02:52:46;;;;;;;1.30;0.82;;;;;;;;;;4975041;28;20035;-13
2021/05/29 02:55:15;;;;;;;1.42;0.60;;;;;;;;;;4974800;28;20393;-13
2021/05/29 02:57:41;;;;;;;1.75;0.80;;;;;;;;;;4975033;28;20354;-13
2021/05/29 03:00:08;;;;;;;0.63;0.47;;;;;;;;;;4974799;28;20041;-13
2021/05/29 03:02:33;;;;;;;4.72;0.85;;;;;;;;;;4974747;28;20097;-13
2021/05/29 03:04:59;;;;;;;1.00;0.80;;;;;;;;;;4973565;28;20065;-13
2021/05/29 03:07:24;;;;;;;0.75;0.63;;;;;;;;;;4974916;28;20019;-12
2021/05/29 03:09:50;;;;;;;0.75;0.75;;;;;;;;;;4974644;28;20426;-12
2021/05/29 03:12:15;;;;;;;0.77;0.63;;;;;;;;;;4974579;28;20050;-13
2021/05/29 03:14:41;;;;;;;1.73;0.70;;;;;;;;;;4973860;28;20121;-13
2021/05/29 03:17:06;;;;;;;2.60;0.50;;;;;;;;;;4974079;28;20050;-13
2021/05/29 03:19:31;;;;;;;1.55;0.98;;;;;;;;;;4974673;28;20030;-12
2021/05/29 03:21:57;;;;;;;1.10;0.45;;;;;;;;;;4973188;28;20056;-13
2021/05/29 03:24:22;;;;;;;0.95;0.85;;;;;;;;;;4974450;28;20035;-14
2021/05/29 03:26:48;;;;;;;0.80;0.55;;;;;;;;;;4974314;28;20026;-13
2021/05/29 03:29:13;;;;;;;1.52;0.90;;;;;;;;;;4974463;28;20081;-13
2021/05/29 03:31:38;;;;;;;0.88;0.60;;;;;;;;;;4974259;28;20029;-13
2021/05/29 03:34:04;;;;;;;1.38;0.73;;;;;;;;;;4974049;28;20138;-13
2021/05/29 03:36:29;;;;;;;1.30;0.57;;;;;;;;;;4974354;28;20073;-13
2021/05/29 03:38:55;;;;;;;10.38;1.35;;;;;;;;;;4972869;28;20070;-13
2021/05/29 03:41:20;;;;;;;3.42;0.80;;;;;;;;;;4974354;28;20023;-13
2021/05/29 03:43:46;;;;;;;1.85;1.02;;;;;;;;;;4974256;28;20085;-13
2021/05/29 03:46:11;;;;;;;20.58;0.95;;;;;;;;;;4974413;28;20034;-13
2021/05/29 03:48:37;;;;;;;0.50;0.50;;;;;;;;;;4974118;28;20066;-13
2021/05/29 03:51:02;;;;;;;0.85;0.60;;;;;;;;;;4973252;28;20026;-13
2021/05/29 03:53:28;;;;;;;2.13;0.77;;;;;;;;;;4973839;28;20057;-13
2021/05/29 03:55:54;;;;;;;2.78;0.95;;;;;;;;;;4973859;28;20023;-13
2021/05/29 03:58:20;;;;;;;2.35;0.70;;;;;;;;;;4973793;28;20030;-14
2021/05/29 04:00:45;;;;;;;1.48;0.80;;;;;;;;;;4973846;28;20022;-13
2021/05/29 04:03:11;;;;;;;1.33;0.70;;;;;;;;;;4973790;28;20070;-13
2021/05/29 04:05:36;;;;;;;1.10;1.00;;;;;;;;;;4973661;28;20029;-13
2021/05/29 04:08:02;;;;;;;0.60;0.60;;;;;;;;;;4973992;28;20027;-12
2021/05/29 04:10:28;;;;;;;1.80;0.68;;;;;;;;;;4974076;28;20081;-17
2021/05/29 04:12:55;;;;;;;1.05;0.70;;;;;;;;;;4973522;28;20093;-13
2021/05/29 04:15:21;;;;;;;1.25;0.80;;;;;;;;;;4972458;28;20436;-13
2021/05/29 04:17:47;;;;;;;1.17;0.70;;;;;;;;;;4973729;28;20030;-13
2021/05/29 04:20:13;;;;;;;0.63;0.57;;;;;;;;;;4973900;28;20037;-13
2021/05/29 04:22:39;;;;;;;0.63;0.40;;;;;;;;;;4973644;28;20062;-13
2021/05/29 04:25:05;;;;;;;1.42;0.80;;;;;;;;;;4973884;28;20058;-13
2021/05/29 04:27:30;;;;;;;1.58;0.60;;;;;;;;;;4973751;28;20046;-13
2021/05/29 04:29:56;;;;;;;3.00;1.05;;;;;;;;;;4973890;28;20027;-13
2021/05/29 04:32:21;;;;;;;1.05;0.57;;;;;;;;;;4973640;28;20057;-13
2021/05/29 04:34:47;;;;;;;0.70;0.57;;;;;;;;;;4973385;28;20059;-13
2021/05/29 04:37:16;;;;;;;1.95;1.05;;;;;;;;;;4973434;28;20380;-13
2021/05/29 04:39:42;;;;;;;1.20;0.75;;;;;;;;;;4973277;28;20046;-13
2021/05/29 04:42:08;;;;;;;0.55;0.55;;;;;;;;;;4973381;28;20023;-13
2021/05/29 04:44:33;;;;;;;2.00;0.80;;;;;;;;;;4973370;28;20101;-13
2021/05/29 04:47:01;;;;;;;7.00;0.90;;;;;;;;;;4973632;28;20042;-13
2021/05/29 04:49:26;;;;;;;1.02;0.60;;;;;;;;;;4973369;28;20018;-13
2021/05/29 04:51:52;;;;;;;2.38;0.75;;;;;;;;;;4971939;28;20093;-13
2021/05/29 04:54:18;;;;;;;1.02;0.85;;;;;;;;;;4973188;28;20066;-13
2021/05/29 04:56:43;;;;;;;1.00;0.77;;;;;;;;;;4973176;28;20031;-13
2021/05/29 04:59:09;;;;;;;1.83;0.63;;;;;;;;;;4973286;28;20023;-14
2021/05/29 05:01:34;;;;;;;3.67;1.10;;;;;;;;;;4973265;28;20023;-13
2021/05/29 05:04:00;;;;;;;1.23;0.65;;;;;;;;;;4977231;28;20031;-13
2021/05/29 05:06:26;;;;;;;1.20;0.45;;;;;;;;;;4976959;28;20034;-14
2021/05/29 05:08:52;;;;;;;4.88;1.13;;;;;;;;;;4975316;28;20019;-12
2021/05/29 05:11:17;;;;;;;4.38;1.02;;;;;;;;;;4976956;28;20023;-13
2021/05/29 05:13:43;;;;;;;2.05;0.75;;;;;;;;;;4976649;28;20027;-13
2021/05/29 05:16:08;;;;;;;0.82;0.80;;;;;;;;;;4976668;28;20074;-13
2021/05/29 05:18:34;;;;;;;0.90;0.70;;;;;;;;;;4976583;28;20023;-13
2021/05/29 05:20:59;;;;;;;3.33;1.08;;;;;;;;;;4976697;28;20023;-13
2021/05/29 05:23:24;;;;;;;2.22;0.60;;;;;;;;;;4976513;28;20022;-12
2021/05/29 05:25:53;;;;;;;1.08;0.90;;;;;;;;;;4976560;28;20616;-13
2021/05/29 05:28:25;;;;;;;0.90;0.70;;;;;;;;;;4976690;28;20117;-13
2021/05/29 05:30:51;;;;;;;0.60;0.60;;;;;;;;;;4976422;28;20429;-12
2021/05/29 05:33:18;;;;;;;4.68;1.33;;;;;;;;;;4976153;28;20285;-14
2021/05/29 05:35:43;;;;;;;2.03;0.75;;;;;;;;;;4976407;28;20035;-12
2021/05/29 05:38:09;;;;;;;0.98;0.77;;;;;;;;;;4976170;28;20030;-13
2021/05/29 05:40:34;;;;;;;1.00;0.85;;;;;;;;;;4976207;28;20035;-12
2021/05/29 05:43:00;;;;;;;3.25;0.93;;;;;;;;;;4975301;28;20103;-13
2021/05/29 05:45:26;;;;;;;1.05;0.60;;;;;;;;;;4976427;28;20110;-13
2021/05/29 05:47:51;;;;;;;2.10;0.82;;;;;;;;;;4976093;28;20388;-13
2021/05/29 05:50:17;;;;;;;1.30;0.80;;;;;;;;;;4976109;28;20041;-13
2021/05/29 05:52:42;;;;;;;0.50;0.50;;;;;;;;;;4976069;28;20059;-12
2021/05/29 05:55:08;;;;;;;2.97;0.82;;;;;;;;;;4976278;28;20117;-12
2021/05/29 05:57:34;;;;;;;2.40;0.70;;;;;;;;;;4976140;28;20033;-13
2021/05/29 06:00:00;;;;;;;2.45;0.90;;;;;;;;;;4974703;28;20022;-13
2021/05/29 06:02:25;;;;;;;1.27;0.70;;;;;;;;;;4975962;28;20019;-12
2021/05/29 06:04:51;;;;;;;1.38;0.73;;;;;;;;;;4975987;28;20039;-13
2021/05/29 06:07:16;;;;;;;0.52;0.52;;;;;;;;;;4976067;28;20043;-13
2021/05/29 06:09:42;;;;;;;0.60;0.52;;;;;;;;;;4975967;28;20030;-13
2021/05/29 06:12:07;;;;;;;0.55;0.55;;;;;;;;;;4975647;28;20023;-12
2021/05/29 06:20:01;;;;;;;4.68;0.73;;;;;;;;;;4975771;28;20129;-13
2021/05/29 06:22:26;;;;;;;1.40;0.77;;;;;;;;;;4975684;28;20101;-12
2021/05/29 06:24:51;;;;;;;0.75;0.75;;;;;;;;;;4975431;28;20117;-13
2021/05/29 06:27:17;;;;;;;0.82;0.70;;;;;;;;;;4974074;28;20019;-13
2021/05/29 06:30:16;;;;;;;1.23;0.60;;;;;;;;;;4974382;28;20126;-13
2021/05/29 06:32:50;;;;;;;0.75;0.65;;;;;;;;;;4975186;28;20042;-13
2021/05/29 06:35:16;;;;;;;1.42;0.90;;;;;;;;;;4975039;28;20055;-13
2021/05/29 06:37:41;;;;;;;0.82;0.60;;;;;;;;;;4975187;28;20109;-13
2021/05/29 06:40:07;;;;;;;0.75;0.75;;;;;;;;;;4975198;28;20034;-13
2021/05/29 06:42:32;;;;;;;1.27;0.82;;;;;;;;;;4975263;28;20082;-12
2021/05/29 06:44:58;;;;;;;0.90;0.57;;;;;;;;;;4975208;28;20453;-13
2021/05/29 06:47:24;;;;;;;3.28;0.85;;;;;;;;;;4974998;28;20033;-13
2021/05/29 06:49:50;;;;;;;2.00;0.90;;;;;;;;;;4974909;28;20107;-13
2021/05/29 06:52:18;;;;;;;1.90;0.90;;;;;;;;;;4975272;28;20058;-12
2021/05/29 06:59:54;;;;;;;1.23;0.75;;;;;;;;;;4975040;28;20027;-13
2021/05/29 07:02:19;;;;;;;1.02;0.70;;;;;;;;;;4975065;28;20081;-13
2021/05/29 07:04:45;;;;;;;1.67;0.85;;;;;;;;;;4974616;28;20442;-12
2021/05/29 07:07:10;;;;;;;1.25;0.80;;;;;;;;;;4974895;28;20015;-13
2021/05/29 07:09:35;;;;;;;1.02;0.80;;;;;;;;;;4974526;28;20121;-13
2021/05/29 07:12:01;;;;;;;1.92;0.98;;;;;;;;;;4974881;28;20123;-12
2021/05/29 07:14:26;;;;;;;5.88;0.98;;;;;;;;;;4974752;28;20505;-13
2021/05/29 07:16:53;;;;;;;2.78;1.00;;;;;;;;;;4974457;28;20377;-13
2021/05/29 07:19:19;;;;;;;1.05;0.70;;;;;;;;;;4973140;28;20414;-12
2021/05/29 07:21:45;;;;;;;1.27;0.93;;;;;;;;;;4974412;28;20105;-13
2021/05/29 07:24:10;;;;;;;1.25;0.90;;;;;;;;;;4974268;28;20104;-12
2021/05/29 07:26:36;;;;;;;1.85;0.73;;;;;;;;;;4974311;28;20015;-13
2021/05/29 07:29:02;;;;;;;2.88;1.17;;;;;;;;;;4974591;28;20059;-13
2021/05/29 07:31:28;;;;;;;1.10;0.70;;;;;;;;;;4973266;28;20023;-13
2021/05/29 07:33:55;;;;;;;1.73;0.80;;;;;;;;;;4974004;28;20053;-14
2021/05/29 07:36:21;;;;;;;1.15;0.85;;;;;;;;;;4974236;28;20053;-13
2021/05/29 07:38:46;;;;;;;1.13;0.75;;;;;;;;;;4972743;28;20039;-13
2021/05/29 07:41:11;;;;;;;1.33;1.08;;;;;;;;;;4974233;28;20103;-13
2021/05/29 07:43:37;;;;;;;1.95;0.70;;;;;;;;;;4974214;28;20505;-14
2021/05/29 07:46:03;;;;;;;1.25;0.77;;;;;;;;;;4974276;28;20093;-13
2021/05/29 07:48:29;;;;;;;1.02;0.63;;;;;;;;;;4974280;28;20058;-13
2021/05/29 07:50:57;;;;;;;1.17;0.70;;;;;;;;;;4973935;28;20073;-13
2021/05/29 07:53:30;;;;;;;0.90;0.60;;;;;;;;;;4974081;28;20073;-13
2021/05/29 07:55:58;;;;;;;0.98;0.90;;;;;;;;;;4973797;28;20050;-13
2021/05/29 07:58:24;;;;;;;2.15;1.20;;;;;;;;;;4973919;28;20026;-13
2021/05/29 08:00:51;;;;;;;2.63;1.40;;;;;;;;;;4973690;28;20031;-13
2021/05/29 08:03:17;;;;;;;5.10;0.70;;;;;;;;;;4973877;28;20054;-13
2021/05/29 08:05:43;;;;;;;2.70;1.27;;;;;;;;;;4973948;28;20041;-13
2021/05/29 08:08:08;;;;;;;0.70;0.70;;;;;;;;;;4973724;28;20469;-13
2021/05/29 08:10:34;;;;;;;1.98;0.90;;;;;;;;;;4973962;28;20034;-13
2021/05/29 08:12:59;;;;;;;2.20;0.70;;;;;;;;;;4973862;28;20027;-13
2021/05/29 08:15:25;;;;;;;0.68;0.52;;;;;;;;;;4973691;28;20382;-12
2021/05/29 08:17:50;;;;;;;1.85;1.13;;;;;;;;;;4973873;28;20022;-13
2021/05/29 08:20:16;;;;;;;0.70;0.70;;;;;;;;;;4973819;28;20362;-12
2021/05/29 08:22:41;;;;;;;0.75;0.70;;;;;;;;;;4973791;28;20046;-12
2021/05/29 08:25:07;;;;;;;0.80;0.70;;;;;;;;;;4973813;28;20432;-12
2021/05/29 08:27:33;;;;;;;1.08;0.50;;;;;;;;;;4973529;28;20034;-13
2021/05/29 08:29:58;;;;;;;0.75;0.65;;;;;;;;;;4973555;28;20039;-13
2021/05/29 08:32:24;;;;;;;0.75;0.70;;;;;;;;;;4973626;28;20143;-13
2021/05/29 08:34:50;;;;;;;0.90;0.85;;;;;;;;;;4973310;28;20054;-12
2021/05/29 08:37:15;;;;;;;0.85;0.68;;;;;;;;;;4974634;28;20031;-13
2021/05/29 08:39:40;;;;;;;2.28;0.70;;;;;;;;;;4976389;28;20122;-13
2021/05/29 08:42:06;;;;;;;1.00;0.90;;;;;;;;;;4977660;28;20015;-13
2021/05/29 08:44:33;;;;;;;0.98;0.88;;;;;;;;;;4977504;28;20027;-12
2021/05/29 08:46:58;;;;;;;4.60;0.60;;;;;;;;;;4977518;28;20030;-12
2021/05/29 08:49:23;;;;;;;3.35;0.70;;;;;;;;;;4977462;28;20038;-22
2021/05/29 08:51:49;;;;;;;1.15;0.70;;;;;;;;;;4977066;28;20082;-12
2021/05/29 08:54:15;;;;;;;0.70;0.70;;;;;;;;;;4975839;28;20063;-13
2021/05/29 08:56:40;;;;;;;0.90;0.70;;;;;;;;;;4976963;28;20026;-13
2021/05/29 08:59:06;;;;;;;0.68;0.65;;;;;;;;;;4977132;28;20045;-13
2021/05/29 09:01:31;;;;;;;0.80;0.80;;;;;;;;;;4977317;28;20470;-13
2021/05/29 09:03:56;;;;;;;1.05;0.70;;;;;;;;;;4977120;28;20050;-14
2021/05/29 09:06:31;;;;;;;1.63;0.60;;;;;;;;;;4975688;28;20018;-13
2021/05/29 09:08:58;;;;;;;0.55;0.50;;;;;;;;;;4976718;28;20200;-13
2021/05/29 09:11:40;;;;;;;1.92;1.10;;;;;;;;;;4976743;28;20011;-13
2021/05/29 09:14:24;;;;;;;4.85;0.90;;;;;;;;;;4977015;28;20122;-13
2021/05/29 09:17:03;;;;;;;0.93;0.60;;;;;;;;;;4976632;28;20035;-12
2021/05/29 09:19:29;;;;;;;0.82;0.68;;;;;;;;;;4975433;28;20065;-13
2021/05/29 09:21:55;;;;;;;5.38;0.70;;;;;;;;;;4976867;28;20045;-13
2021/05/29 09:24:21;;;;;;;3.15;0.80;;;;;;;;;;4976783;28;20086;-13
2021/05/29 09:26:49;;;;;;;0.57;0.47;;;;;;;;;;4976464;28;20015;-13
2021/05/29 09:29:18;;;;;;;0.88;0.88;;;;;;;;;;4976548;28;20486;-13
2021/05/29 09:31:49;;;;;;;1.20;0.90;;;;;;;;;;4976287;28;20023;-13
2021/05/29 09:34:26;;;;;;;0.65;0.65;;;;;;;;;;4976229;28;20134;-12
2021/05/29 09:37:00;;;;;;;1.20;0.60;;;;;;;;;;4976580;28;20023;-13
2021/05/29 09:39:28;;;;;;;0.93;0.80;;;;;;;;;;4976274;28;20030;-13
2021/05/29 09:41:54;;;;;;;3.80;0.50;;;;;;;;;;4976262;28;20019;-12
2021/05/29 09:44:25;;;;;;;1.35;0.80;;;;;;;;;;4976281;28;20101;-13
2021/05/29 09:46:55;;;;;;;1.15;0.90;;;;;;;;;;4976380;28;20034;-12
2021/05/29 09:49:20;;;;;;;2.92;0.65;;;;;;;;;;4975092;28;20026;-13
2021/05/29 09:51:46;;;;;;;2.28;0.50;;;;;;;;;;4975081;28;20034;-12
2021/05/29 09:54:11;;;;;;;1.00;0.52;;;;;;;;;;4976054;28;20114;-13
2021/05/29 09:56:40;;;;;;;5.13;0.75;;;;;;;;;;4975971;28;20030;-13
2021/05/29 09:59:19;;;;;;;0.50;0.50;;;;;;;;;;4976147;28;20101;-13
2021/05/29 10:01:50;;;;;;;0.45;0.32;;;;;;;;;;4975978;28;20027;-13
2021/05/29 10:04:15;;;;;;;0.70;0.52;;;;;;;;;;4975972;28;20169;-12
2021/05/29 10:06:41;;;;;;;0.80;0.40;;;;;;;;;;4975725;28;20434;-13
2021/05/29 10:09:07;;;;;;;1.27;0.43;;;;;;;;;;4974539;28;20113;-13
2021/05/29 10:11:35;;;;;;;0.80;0.77;;;;;;;;;;4975881;28;20049;-12
2021/05/29 10:14:00;;;;;;;0.30;0.30;;;;;;;;;;4975612;28;20043;-12
2021/05/29 10:16:27;;;;;;;0.60;0.60;;;;;;;;;;4975971;28;20102;-13
2021/05/29 10:18:55;;;;;;;1.27;0.82;;;;;;;;;;4975604;28;20034;-12
2021/05/29 10:21:21;;;;;;;1.05;0.50;;;;;;;;;;4975824;28;20114;-13
2021/05/29 10:23:47;;;;;;;0.75;0.65;;;;;;;;;;4975524;28;20055;-13
2021/05/29 10:26:17;;;;;;;0.70;0.70;;;;;;;;;;4974248;28;20023;-13
2021/05/29 10:28:44;;;;;;;1.42;1.10;;;;;;;;;;4975625;28;20101;-12
2021/05/29 10:31:10;;;;;;;1.25;1.00;;;;;;;;;;4975647;28;20033;-13
2021/05/29 10:33:41;;;;;;;1.67;0.70;;;;;;;;;;4975201;28;20396;-13
2021/05/29 10:36:07;;;;;;;0.88;0.70;;;;;;;;;;4975312;28;20070;-13
2021/05/29 10:38:58;;;;;;;0.73;0.70;;;;;;;;;;4975278;28;20386;-13
2021/05/29 10:41:44;;;;;;;1.13;0.70;;;;;;;;;;4972262;28;20039;-13
2021/05/29 10:44:26;;;;;;;1.08;0.70;;;;;;;;;;4975385;28;20043;-13
2021/05/29 10:47:11;;;;;;;1.53;1.10;;;;;;;;;;4975058;28;20039;-13
2021/05/29 10:52:36;;;;;;;0.30;0.30;;;;;;;;;;4975013;28;20038;-13
2021/05/29 10:55:14;;;;;;;0.47;0.47;;;;;;;;;;4965678;28;20051;-12
2021/05/29 10:57:49;;;;;;;0.73;0.65;;;;;;;;;;4974722;28;20308;-12
2021/05/29 11:00:33;;;;;;;1.00;0.50;;;;;;;;;;4974684;28;20027;-13
2021/05/29 11:03:17;;;;;;;0.88;0.50;;;;;;;;;;4975040;28;20170;-13
2021/05/29 11:05:43;;;;;;;0.85;0.55;;;;;;;;;;4974902;28;20031;-13
2021/05/29 11:08:27;;;;;;;0.45;0.45;;;;;;;;;;4974899;28;20026;-14
2021/05/29 11:10:52;;;;;;;0.68;0.52;;;;;;;;;;4974535;28;20030;-13
2021/05/29 11:13:18;;;;;;;0.50;0.50;;;;;;;;;;4974544;28;20041;-12
2021/05/29 11:15:57;;;;;;;1.35;0.70;;;;;;;;;;4974523;28;20054;-12
2021/05/29 11:18:23;;;;;;;0.73;0.50;;;;;;;;;;4973149;28;20035;-13
2021/05/29 11:21:05;;;;;;;5.88;0.98;;;;;;;;;;4974431;28;20473;-13
2021/05/29 11:23:30;;;;;;;0.82;0.60;;;;;;;;;;4973963;28;20030;-13
2021/05/29 11:25:56;;;;;;;0.82;0.70;;;;;;;;;;4974608;28;20019;-13
2021/05/29 11:28:21;;;;;;;0.88;0.70;;;;;;;;;;4974495;28;20371;-12
2021/05/29 11:30:47;;;;;;;0.65;0.65;;;;;;;;;;4973069;28;20037;-13
2021/05/29 11:33:13;;;;;;;0.50;0.50;;;;;;;;;;4974425;28;20405;-13
2021/05/29 11:35:43;;;;;;;1.80;0.82;;;;;;;;;;4974045;28;20559;-13
2021/05/29 11:38:16;;;;;;;1.17;0.77;;;;;;;;;;4974201;28;20039;-13
2021/05/29 11:40:55;;;;;;;0.98;0.68;;;;;;;;;;4974090;28;20038;-12
2021/05/29 11:43:41;;;;;;;0.63;0.50;;;;;;;;;;4974139;28;20489;-13
2021/05/29 11:46:08;;;;;;;0.95;0.65;;;;;;;;;;4963759;28;20050;-13
2021/05/29 11:48:35;;;;;;;0.90;0.63;;;;;;;;;;4974163;28;20018;-13
2021/05/29 11:51:14;;;;;;;1.08;0.75;;;;;;;;;;4973376;28;20030;-13
2021/05/29 11:53:45;;;;;;;0.55;0.55;;;;;;;;;;4974026;28;20046;-13
2021/05/29 11:56:11;;;;;;;0.80;0.80;;;;;;;;;;4973933;28;20035;-12
2021/05/29 11:58:43;;;;;;;1.63;0.70;;;;;;;;;;4973838;28;20015;-13
2021/05/29 12:01:09;;;;;;;2.15;0.88;;;;;;;;;;4973862;28;20077;-12
2021/05/29 12:03:37;;;;;;;0.60;0.60;;;;;;;;;;4973873;28;20050;-13
2021/05/29 12:06:03;;;;;;;0.95;0.75;;;;;;;;;;4972538;28;20485;-13
2021/05/29 12:08:28;;;;;;;1.13;0.80;;;;;;;;;;4973966;28;20015;-13
2021/05/29 12:10:54;;;;;;;0.80;0.80;;;;;;;;;;4973544;28;20086;-13
2021/05/29 12:13:20;;;;;;;0.80;0.80;;;;;;;;;;4973099;28;20077;-13
2021/05/29 12:15:52;;;;;;;1.20;0.75;;;;;;;;;;4973649;28;20529;-13
2021/05/29 12:18:17;;;;;;;0.75;0.50;;;;;;;;;;4973391;28;20023;-13
2021/05/29 12:20:53;;;;;;;0.85;0.60;;;;;;;;;;4973562;28;20030;-13
2021/05/29 12:23:18;;;;;;;0.90;0.77;;;;;;;;;;4972150;28;20065;-13
2021/05/29 12:25:44;;;;;;;0.65;0.65;;;;;;;;;;4973549;28;20454;-13
2021/05/29 12:28:09;;;;;;;0.77;0.77;;;;;;;;;;4973776;28;20030;-13
2021/05/29 12:30:35;;;;;;;0.98;0.70;;;;;;;;;;4973579;28;20069;-13
2021/05/29 12:33:17;;;;;;;0.60;0.60;;;;;;;;;;4973681;28;20548;-13
2021/05/29 12:35:42;;;;;;;1.23;0.70;;;;;;;;;;4973503;28;20043;-13
2021/05/29 12:38:15;;;;;;;2.97;1.08;;;;;;;;;;4971747;28;20039;-13
2021/05/29 12:40:56;;;;;;;0.90;0.82;;;;;;;;;;4972144;28;20552;-12
2021/05/29 12:43:21;;;;;;;1.77;0.70;;;;;;;;;;4973387;28;20481;-13
2021/05/29 12:45:47;;;;;;;0.55;0.52;;;;;;;;;;4971750;28;20027;-13
2021/05/29 12:48:13;;;;;;;1.30;0.82;;;;;;;;;;4972439;28;20030;-13
2021/05/29 12:50:59;;;;;;;1.33;0.70;;;;;;;;;;4973291;28;20022;-13
2021/05/29 12:53:25;;;;;;;1.02;0.60;;;;;;;;;;4973336;28;20566;-14
2021/05/29 12:56:05;;;;;;;0.82;0.70;;;;;;;;;;4973506;28;20015;-13
2021/05/29 12:58:30;;;;;;;0.68;0.60;;;;;;;;;;4973522;28;20111;-13
2021/05/29 13:01:28;;;;;;;1.02;0.88;;;;;;;;;;4973291;28;20047;-13
2021/05/29 13:12:28;;;;;;;0.80;0.60;;;;;;;;;;4973243;28;20058;-13
2021/05/29 13:14:53;;;;;;;0.80;0.70;;;;;;;;;;4973270;28;20031;-13
2021/05/29 13:17:29;;;;;;;0.85;0.75;;;;;;;;;;4973341;28;20031;-12
2021/05/29 13:19:58;;;;;;;1.25;0.90;;;;;;;;;;4973040;28;20054;-13
2021/05/29 13:22:27;;;;;;;0.50;0.50;;;;;;;;;;4973385;28;20089;-13
2021/05/29 13:25:00;;;;;;;1.00;0.60;;;;;;;;;;4976592;28;20035;-13
2021/05/29 13:27:25;;;;;;;5.15;1.10;;;;;;;;;;4976574;28;20481;-13
2021/05/29 13:29:51;;;;;;;0.65;0.63;;;;;;;;;;4976519;28;20038;-13
2021/05/29 13:32:17;;;;;;;4.07;0.70;;;;;;;;;;4976476;28;20031;-13
2021/05/29 13:34:42;;;;;;;0.95;0.93;;;;;;;;;;4976039;28;20051;-13
2021/05/29 13:37:08;;;;;;;1.00;0.68;;;;;;;;;;4976732;28;20034;-13
2021/05/29 13:39:34;;;;;;;0.70;0.52;;;;;;;;;;4976352;28;20027;-13
2021/05/29 13:42:03;;;;;;;0.70;0.70;;;;;;;;;;4976304;28;20025;-12
2021/05/29 13:44:29;;;;;;;0.73;0.70;;;;;;;;;;4976264;28;20094;-12
2021/05/29 13:46:54;;;;;;;0.82;0.80;;;;;;;;;;4976481;28;20090;-13
2021/05/29 13:49:20;;;;;;;3.15;0.73;;;;;;;;;;4976191;28;20027;-13
2021/05/29 13:51:47;;;;;;;1.33;1.00;;;;;;;;;;4976370;28;20047;-13
2021/05/29 13:54:12;;;;;;;1.75;0.95;;;;;;;;;;4974820;28;20086;-12
2021/05/29 13:56:38;;;;;;;0.77;0.55;;;;;;;;;;4975852;28;20027;-14
2021/05/29 13:59:04;;;;;;;1.63;0.70;;;;;;;;;;4976345;28;20026;-12
2021/05/29 14:01:30;;;;;;;4.53;0.80;;;;;;;;;;4976270;28;20054;-12
2021/05/29 14:03:55;;;;;;;0.65;0.60;;;;;;;;;;4975804;28;20023;-13
2021/05/29 14:06:21;;;;;;;0.73;0.60;;;;;;;;;;4975903;28;20029;-13
2021/05/29 14:08:46;;;;;;;1.23;0.88;;;;;;;;;;4975734;28;20046;-13
2021/05/29 14:11:21;;;;;;;3.60;0.93;;;;;;;;;;4975823;28;20035;-12
2021/05/29 14:13:46;;;;;;;4.80;0.70;;;;;;;;;;4975711;28;20088;-13
2021/05/29 14:16:12;;;;;;;0.70;0.68;;;;;;;;;;4975658;28;20019;-14
2021/05/29 14:18:37;;;;;;;0.40;0.40;;;;;;;;;;4975670;28;20042;-13
2021/05/29 14:21:03;;;;;;;1.60;0.88;;;;;;;;;;4975856;28;20021;-13
2021/05/29 14:23:28;;;;;;;2.00;1.02;;;;;;;;;;4975848;28;20619;-13
2021/05/29 14:25:53;;;;;;;0.73;0.70;;;;;;;;;;4975833;28;20045;-13
2021/05/29 14:28:19;;;;;;;1.98;0.77;;;;;;;;;;4975394;28;20042;-21
2021/05/29 14:30:44;;;;;;;3.55;0.90;;;;;;;;;;4975409;28;20136;-13
2021/05/29 14:33:09;;;;;;;0.95;0.70;;;;;;;;;;4975605;28;20035;-13
2021/05/29 14:35:35;;;;;;;0.88;0.88;;;;;;;;;;4974659;28;20141;-13
2021/05/29 14:38:00;;;;;;;0.98;0.55;;;;;;;;;;4975444;28;20073;-12
2021/05/29 14:40:26;;;;;;;0.70;0.60;;;;;;;;;;4975184;28;20548;-13
2021/05/29 14:42:51;;;;;;;0.88;0.50;;;;;;;;;;4975433;28;20037;-13
2021/05/29 14:45:17;;;;;;;0.65;0.60;;;;;;;;;;4975178;28;20430;-13
2021/05/29 14:47:42;;;;;;;1.48;0.63;;;;;;;;;;4975282;28;20031;-13
2021/05/29 14:50:08;;;;;;;0.85;0.63;;;;;;;;;;4975397;28;20412;-13
2021/05/29 14:52:33;;;;;;;0.43;0.43;;;;;;;;;;4975329;28;20503;-14
2021/05/29 14:54:58;;;;;;;0.32;0.32;;;;;;;;;;4974897;28;20440;-13
2021/05/29 14:57:27;;;;;;;0.82;0.52;;;;;;;;;;4974955;28;20027;-13
2021/05/29 14:59:52;;;;;;;0.77;0.60;;;;;;;;;;4974677;28;20465;-13
2021/05/29 15:02:17;;;;;;;0.80;0.47;;;;;;;;;;4974537;28;20068;-12
2021/05/29 15:04:51;;;;;;;0.90;0.50;;;;;;;;;;4973457;28;20050;-12
2021/05/29 15:07:16;;;;;;;1.17;0.75;;;;;;;;;;4973622;28;20023;-13